• Join FlightAware (Why Join?)
  • Login
  • US Flag 
08:48AM EDT


 

Airport Tracker/Info


-or-


 

Live Flight TrackerFlight Track Log ✈ ASQ5738 ✈ 10-May-2013 ✈ KALB - KIAD

Flight Track Log - Related Links

Times and Time Zones

All times are in EDT time to prevent confusion due to time zone crossing. See the ASQ5738 flight status page for this flight to view local times or setup timezone preferences in your user account.

Time Position Orientation Groundspeed Altitude Reporting Facility
EDT Latitude Longitude Course Direction KTS MPH feet Rate Location/Type
10:24AM 42.7236 -73.8081 194° South 159 183 1,200  Level Boston Center
10:25AM 42.7186 -73.8756 264° West 225 259 4,100 2,400 Climbing Boston Center
10:26AM 42.7736 -73.9589 312° West 245 282 7,500 2,760 Climbing Boston Center
10:27AM 42.4567 -74.1031 196° South  Level Estimated
10:27AM 42.7808 -74.0553 276° West 245 282 10,300  Level Boston Center
10:28AM 42.3835 -74.1779 198° South  Level Estimated
10:28AM 42.7856 -74.1544 274° West 257 296 13,200  Level Boston Center
10:29AM 42.3102 -74.2525 194° South  Level Estimated
10:29AM 42.7508 -74.2356 240° Southwest 268 308 15,100  Level Boston Center
10:30AM 42.6850 -74.3183 223° Southwest 284 327 16,400 1,080 Climbing Boston Center
10:31AM 42.5958 -74.2875 166° South 298 343 17,300 1,140 Climbing Boston Center
10:32AM 42.4908 -74.2139 153° Southeast 356 410 18,700 1,440 Climbing Boston Center
10:33AM 42.3939 -74.1464 153° Southeast 376 433 20,200 1,200 Climbing Boston Center
10:34AM 42.2947 -74.0792 153° Southeast 392 451 21,200 960 Climbing Boston Center
10:35AM 42.1867 -74.0567 171° South 395 455 22,200 1,080 Climbing Boston Center
10:36AM 42.0797 -74.1044 198° South 386 444 23,400 900 Climbing Boston Center
10:38AM 41.9036 -74.1764 197° South 407 468 24,600 660 Climbing New York Center
10:39AM 41.7919 -74.2236 198° South 413 475 25,200 540 Climbing New York Center
10:40AM 41.6803 -74.2706 197° South 418 481 25,700 480 Climbing New York Center
10:41AM 41.5728 -74.3175 198° South 429 494 26,200 480 Climbing New York Center
10:42AM 41.4567 -74.3642 197° South 423 487 26,700 540 Climbing New York Center
10:43AM 41.3406 -74.4158 198° South 437 503 27,300 540 Climbing New York Center
10:44AM 41.2186 -74.4589 195° South 444 511 27,800 300 Climbing New York Center
10:45AM 41.1003 -74.5075 197° South 444 511 28,000 60 Climbing New York Center
10:46AM 40.9781 -74.5583 197° South 451 519 28,000  Level New York Center
10:47AM 40.8872 -74.6606 220° Southwest 443 510 28,000 -300 Level New York Center
10:48AM 40.8261 -74.7994 240° Southwest 422 486 27,500 -780 Descending New York Center
10:49AM 40.7653 -74.9383 240° Southwest 434 499 26,500 -840 Descending New York Center
10:50AM 40.7042 -75.0689 238° Southwest 439 505 25,900 -780 Descending New York Center
10:51AM 40.6408 -75.2044 238° Southwest 434 499 25,000 -1,020 Descending New York Center
10:52AM 40.5772 -75.3422 239° Southwest 440 506 23,900 -1,080 Descending New York Center
10:53AM 40.5136 -75.4800 239° Southwest 440 506 22,900 -1,020 Descending New York Center
10:54AM 40.4522 -75.6039 237° Southwest 429 494 21,900 -1,020 Descending New York Center
10:55AM 40.3994 -75.7175 239° Southwest 404 465 20,900 -960 Descending New York Center
10:56AM 40.3469 -75.8281 238° Southwest 373 429 20,000 -480 Descending New York Center
10:57AM 40.2969 -75.9253 236° Southwest 365 420 20,000 -120 Level New York Center
10:58AM 40.2417 -76.0408 238° Southwest 365 420 19,800 -720 Descending New York Center
10:59AM 40.1844 -76.1586 238° Southwest 359 413 18,600 -1,020 Descending New York Center
11:00AM 40.1378 -76.2611 239° Southwest 359 413 17,800 -780 Descending New York Center
11:02AM 40.0167 -76.5167 238° Southwest 358 412 16,200 -840 Descending Potomac TRACON
11:03AM 39.9667 -76.6167 237° Southwest 342 394 15,200 -600 Descending Potomac TRACON
11:04AM 39.9167 -76.7333 241° Southwest 353 406 15,000 -120 Descending Potomac TRACON
11:05AM 39.8667 -76.8333 237° Southwest 345 397 15,000 -600 Level Potomac TRACON
11:06AM 39.8167 -76.9333 237° Southwest 346 398 13,900 -1,200 Descending Potomac TRACON
11:07AM 39.7833 -77.0333 247° West 333 383 12,800 -1,260 Descending Potomac TRACON
11:08AM 39.7333 -77.1167 232° Southwest 296 341 11,600 -1,260 Descending Potomac TRACON
11:09AM 39.7000 -77.2000 243° Southwest 275 316 10,300 -1,680 Descending Potomac TRACON
11:10AM 39.6500 -77.2833 232° Southwest 264 304 8,300 -2,040 Descending Potomac TRACON
11:11AM 39.6000 -77.3333 218° Southwest 264 304 6,500 -1,200 Descending Potomac TRACON
11:12AM 39.5333 -77.3667 201° Southwest 259 298 5,900 -900 Descending Potomac TRACON
11:13AM 39.4667 -77.3833 191° South 260 299 4,700 -1,020 Descending Potomac TRACON
11:14AM 39.4000 -77.4167 201° Southwest 258 297 4,000 -840 Descending Potomac TRACON
11:15AM 39.3333 -77.4333 191° South 263 303 3,200 -540 Descending Potomac TRACON
11:16AM 39.2500 -77.4333 180° South 254 292 3,000 -120 Descending Potomac TRACON
11:17AM 39.1833 -77.4333 180° South 249 287 3,000  Level Potomac TRACON
11:18AM 39.1333 -77.4333 180° South 193 222 3,000  Level Potomac TRACON